Maersk Shanghai — D5LD2 — position and weather

sailwx.info

Track history (hours):
 
Tides and Currents Weather Stations Pressure Air Temp Water Temp Dewpoint Dewpoint Depression Visibility Wind Speed Wind Dir Waves Ship Positions

Maersk Shanghai

Last reported at 2018-Feb-20 23:29 UTC. Time now 2018-Feb-20 23:46 UTC.
Position N 40°41' W 074°09'.

Length 324 m; draft 14.4 m.

Type: Cargo ship. MMSI: 636017473.

Date/timePositionNaut miles runAvg speedWind from/ knotsBaromVisibWave heightAir tempDewpointWater temp
2018-Feb-20 23:29N 40°41' W 074°09'0 0.2
2018-Feb-20 23:00N 40°41' W 074°09'1 2.3
2018-Feb-20 22:30N 40°40' W 074°09'1 2.3
2018-Feb-20 22:00N 40°39' W 074°08'2 4.1
2018-Feb-20 21:30N 40°39' W 074°05'3 6.2
2018-Feb-20 21:00N 40°37' W 074°03'510.8
2018-Feb-20 20:30N 40°32' W 074°01'510.4
2018-Feb-20 20:00N 40°29' W 073°54'5 9.5
2018-Feb-20 19:30N 40°27' W 073°49'4 8.0
2018-Feb-20 18:59N 40°27' W 073°43'5 8.7
2018-Feb-20 18:28N 40°28' W 073°37'4 9.1
2018-Feb-20 17:59N 40°28' W 073°32'  
2018-Feb-15 07:51N 37°42' W 029°56'1118.4
2018-Feb-15 07:16N 37°41' W 029°42'618.6
2018-Feb-15 06:57N 37°41' W 029°35'818.6
2018-Feb-15 06:31N 37°40' W 029°25'1019.0
2018-Feb-15 06:00N 37°39' W 029°13'1019.3
2018-Feb-15 05:31N 37°38' W 029°01'1019.2
2018-Feb-15 05:00N 37°37' W 028°49'1019.1
2018-Feb-15 04:30N 37°36' W 028°37'1019.2
2018-Feb-15 04:01N 37°36' W 028°25'1019.6
2018-Feb-15 03:30N 37°35' W 028°12'1019.5
2018-Feb-15 03:01N 37°34' W 028°00'1019.9
2018-Feb-15 02:31N 37°33' W 027°48'1019.8
2018-Feb-15 02:00N 37°32' W 027°35'1019.7
2018-Feb-15 01:30N 37°31' W 027°23'1019.7
2018-Feb-15 01:01N 37°30' W 027°10'1019.6
2018-Feb-15 00:31N 37°29' W 026°58'1019.6
2018-Feb-15 00:00N 37°28' W 026°46'1019.5
2018-Feb-14 23:31N 37°28' W 026°34'1019.4
2018-Feb-14 23:00N 37°27' W 026°21'1019.2
2018-Feb-14 22:30N 37°26' W 026°09'1019.4
2018-Feb-14 22:00N 37°25' W 025°57'1019.4
2018-Feb-14 21:31N 37°24' W 025°45'1019.5
2018-Feb-14 21:01N 37°23' W 025°33'1019.9
2018-Feb-14 20:31N 37°22' W 025°20'1019.9
2018-Feb-14 20:00N 37°21' W 025°08'1020.2
2018-Feb-14 19:31N 37°20' W 024°55'1020.3
2018-Feb-14 19:00N 37°19' W 024°42'1019.8
2018-Feb-14 18:31N 37°18' W 024°30'1019.7
2018-Feb-14 18:00N 37°17' W 024°18'1019.5
2018-Feb-14 17:31N 37°16' W 024°05'1019.7
2018-Feb-14 17:00N 37°16' W 023°53'1019.5
2018-Feb-14 16:30N 37°15' W 023°41'1019.5
2018-Feb-14 16:01N 37°14' W 023°29'1019.6
2018-Feb-14 15:29N 37°13' W 023°16'85519.3
2018-Feb-12 19:14N 35°57' W 005°36'418.4
2018-Feb-12 19:00N 35°58' W 005°31'918.7
2018-Feb-12 18:31N 36°01' W 005°20'  
Track history (hours):
 
Tides and Currents Weather Stations Pressure Air Temp Water Temp Dewpoint Dewpoint Depression Visibility Wind Speed Wind Dir Waves Ship Positions

Maersk Shanghai

Last reported at 2018-Feb-20 23:29 UTC. Time now 2018-Feb-20 23:46 UTC.
Position N 40°41' W 074°09'.

Length 324 m; draft 14.4 m.

Type: Cargo ship. MMSI: 636017473.

Date/timePositionNaut miles runAvg speedWind from/ knotsBaromVisibWave heightAir tempDewpointWater temp
2018-Feb-20 23:29N 40°41' W 074°09'0 0.2
2018-Feb-20 23:00N 40°41' W 074°09'1 2.3
2018-Feb-20 22:30N 40°40' W 074°09'1 2.3
2018-Feb-20 22:00N 40°39' W 074°08'2 4.1
2018-Feb-20 21:30N 40°39' W 074°05'3 6.2
2018-Feb-20 21:00N 40°37' W 074°03'510.8
2018-Feb-20 20:30N 40°32' W 074°01'510.4
2018-Feb-20 20:00N 40°29' W 073°54'5 9.5
2018-Feb-20 19:30N 40°27' W 073°49'4 8.0
2018-Feb-20 18:59N 40°27' W 073°43'5 8.7
2018-Feb-20 18:28N 40°28' W 073°37'4 9.1
2018-Feb-20 17:59N 40°28' W 073°32'  
2018-Feb-15 07:51N 37°42' W 029°56'1118.4
2018-Feb-15 07:16N 37°41' W 029°42'618.6
2018-Feb-15 06:57N 37°41' W 029°35'818.6
2018-Feb-15 06:31N 37°40' W 029°25'1019.0
2018-Feb-15 06:00N 37°39' W 029°13'1019.3
2018-Feb-15 05:31N 37°38' W 029°01'1019.2
2018-Feb-15 05:00N 37°37' W 028°49'1019.1
2018-Feb-15 04:30N 37°36' W 028°37'1019.2
2018-Feb-15 04:01N 37°36' W 028°25'1019.6
2018-Feb-15 03:30N 37°35' W 028°12'1019.5
2018-Feb-15 03:01N 37°34' W 028°00'1019.9
2018-Feb-15 02:31N 37°33' W 027°48'1019.8
2018-Feb-15 02:00N 37°32' W 027°35'1019.7
2018-Feb-15 01:30N 37°31' W 027°23'1019.7
2018-Feb-15 01:01N 37°30' W 027°10'1019.6
2018-Feb-15 00:31N 37°29' W 026°58'1019.6
2018-Feb-15 00:00N 37°28' W 026°46'1019.5
2018-Feb-14 23:31N 37°28' W 026°34'1019.4
2018-Feb-14 23:00N 37°27' W 026°21'1019.2
2018-Feb-14 22:30N 37°26' W 026°09'1019.4
2018-Feb-14 22:00N 37°25' W 025°57'1019.4
2018-Feb-14 21:31N 37°24' W 025°45'1019.5
2018-Feb-14 21:01N 37°23' W 025°33'1019.9
2018-Feb-14 20:31N 37°22' W 025°20'1019.9
2018-Feb-14 20:00N 37°21' W 025°08'1020.2
2018-Feb-14 19:31N 37°20' W 024°55'1020.3
2018-Feb-14 19:00N 37°19' W 024°42'1019.8
2018-Feb-14 18:31N 37°18' W 024°30'1019.7
2018-Feb-14 18:00N 37°17' W 024°18'1019.5
2018-Feb-14 17:31N 37°16' W 024°05'1019.7
2018-Feb-14 17:00N 37°16' W 023°53'1019.5
2018-Feb-14 16:30N 37°15' W 023°41'1019.5
2018-Feb-14 16:01N 37°14' W 023°29'1019.6
2018-Feb-14 15:29N 37°13' W 023°16'85519.3
2018-Feb-12 19:14N 35°57' W 005°36'418.4
2018-Feb-12 19:00N 35°58' W 005°31'918.7
2018-Feb-12 18:31N 36°01' W 005°20'  

Dump ship's entire track history